CDT,Max TemperatureF,Mean TemperatureF,Min TemperatureF,Max Dew PointF,MeanDew PointF,Min DewpointF,Max Humidity, Mean Humidity, Min Humidity, Max Sea Level PressureIn, Mean Sea Level PressureIn, Min Sea Level PressureIn, Max VisibilityMiles, Mean VisibilityMiles, Min VisibilityMiles, Max Wind SpeedMPH, Mean Wind SpeedMPH, Max Gust SpeedMPH,PrecipitationIn, CloudCover, Events, WindDirDegrees
2013-4-1,57,46,37,50,41,32,90,75,61,30.15,30.06,29.98,10,10,5,18,8,29,0.02,6,Rain-Thunderstorm,82
2013-4-2,37,36,33,36,32,26,97,87,66,30.20,30.16,30.12,10,6,2,16,10,20,0.00,7,Rain-Snow-Thunderstorm,43
2013-4-3,37,35,33,34,33,32,98,92,85,30.23,30.19,30.14,10,7,2,15,9,16,0.03,8,Rain-Snow-Thunderstorm,30
2013-4-4,61,48,34,41,36,32,94,75,40,30.23,30.17,30.11,10,10,10,8,4,,0.00,4,Snow,359
2013-4-5,75,54,34,43,40,34,97,61,28,30.15,30.00,29.78,10,9,4,31,9,41,0.00,0,,188
2013-4-6,76,60,45,45,38,27,85,44,17,29.88,29.82,29.73,10,10,10,30,15,40,0.00,0,,131
2013-4-7,77,64,50,60,50,45,90,68,36,29.85,29.73,29.61,10,10,10,14,3,18,0.00,1,,136
2013-4-8,90,72,54,61,52,21,99,68,8,29.63,29.54,29.41,10,8,0,29,8,40,0.00,3,Fog,166
2013-4-9,67,48,27,63,40,20,88,81,70,30.08,29.73,29.47,10,9,5,30,23,38,0.04,5,Rain-Snow-Thunderstorm,337
2013-4-10,48,36,24,20,15,13,74,50,25,30.11,30.02,29.91,10,10,7,28,19,36,0.00,3,Snow-Thunderstorm,338
2013-4-11,69,46,23,31,20,15,76,41,15,30.03,29.84,29.68,10,10,10,20,6,25,0.00,0,,302
2013-4-12,66,50,34,42,33,29,81,55,28,30.03,29.94,29.87,10,10,10,17,3,21,0.00,2,,124
2013-4-13,77,60,42,44,40,34,83,53,25,30.00,29.81,29.56,10,10,7,30,10,52,0.00,2,Rain,161
2013-4-14,77,67,57,52,40,21,80,41,19,29.69,29.53,29.45,10,10,10,29,20,38,0.00,0,,94
2013-4-15,72,57,42,44,31,20,67,38,24,29.81,29.74,29.69,10,10,10,21,11,26,0.00,2,,75
2013-4-16,62,52,42,45,36,30,93,60,42,30.01,29.91,29.81,10,10,4,16,12,25,0.00,5,,62
2013-4-17,46,42,37,46,43,36,99,97,93,29.88,29.80,29.68,10,3,1,22,10,32,0.01,8,Rain,29
2013-4-18,47,40,32,36,25,16,93,62,31,30.19,30.04,29.90,10,10,10,29,21,40,0.00,6,,341
2013-4-19,66,48,30,23,17,12,66,34,12,30.21,30.12,30.02,10,10,10,20,10,24,0.00,0,,279
2013-4-20,71,59,48,29,23,16,32,27,18,30.02,29.92,29.82,10,10,10,29,17,37,0.00,0,,169
2013-4-21,73,59,45,49,37,27,71,44,27,30.08,30.02,29.95,10,10,10,23,11,31,0.00,0,,160
2013-4-22,86,62,39,51,46,33,89,62,20,30.03,29.88,29.69,10,10,2,34,16,54,0.00,3,,160
2013-4-23,38,34,31,33,31,29,97,92,78,30.21,30.14,30.04,10,6,2,25,20,40,0.00,8,Rain,6
2013-4-24,62,50,39,30,21,14,70,30,16,30.32,30.24,30.19,10,10,10,10,5,,0.00,0,,175
2013-4-25,69,54,39,31,23,5,69,34,9,30.29,30.20,30.05,10,10,10,25,10,29,0.00,1,,185
2013-4-26,81,67,54,55,46,32,90,57,31,30.16,30.01,29.88,10,10,10,26,11,36,0.00,5,Rain,132
2013-4-27,79,64,48,51,44,29,99,59,17,30.19,30.10,29.99,10,8,0,17,5,21,0.00,2,Fog,350
2013-4-28,89,66,42,47,35,18,88,38,8,30.00,29.90,29.76,10,10,10,20,7,25,0.00,0,,228
2013-4-29,93,74,54,43,36,27,58,27,9,29.81,29.72,29.59,10,10,10,28,14,37,0.00,0,,204
2013-4-30,92,78,63,60,49,39,73,40,16,29.68,29.64,29.58,10,10,10,30,24,43,0.00,0,,179